createdAt,value
2019-04-28T00:01:36.291Z,15.73
2019-04-28T00:04:06.602Z,11.83
2019-04-28T00:06:36.612Z,6.53
2019-04-28T00:09:07.946Z,15.23
2019-04-28T00:11:38.517Z,17.37
2019-04-28T00:14:08.624Z,14.03
2019-04-28T00:16:41.145Z,15.20
2019-04-28T00:19:11.437Z,14.57
2019-04-28T00:21:51.614Z,14.23
2019-04-28T00:24:33.085Z,15.93
2019-04-28T00:27:04.945Z,12.57
2019-04-28T00:29:40.264Z,11.93
2019-04-28T00:32:06.875Z,14.33
2019-04-28T00:34:36.925Z,11.77
2019-04-28T00:37:22.813Z,13.30
2019-04-28T00:39:53.022Z,13.70
2019-04-28T00:42:23.075Z,12.40
2019-04-28T00:44:54.920Z,15.87
2019-04-28T00:47:25.815Z,8.97
2019-04-28T00:49:55.859Z,14.87
2019-04-28T00:52:25.979Z,12.17
2019-04-28T00:54:56.023Z,16.07
2019-04-28T00:57:26.104Z,9.63
2019-04-28T00:59:58.759Z,15.57
2019-04-28T01:02:45.194Z,9.43
2019-04-28T01:05:15.896Z,8.83
2019-04-28T01:07:46.005Z,14.43
2019-04-28T01:10:16.072Z,16.83
2019-04-28T01:12:46.717Z,14.00
2019-04-28T01:15:25.848Z,8.73
2019-04-28T01:18:02.354Z,12.97
2019-04-28T01:20:32.478Z,10.87
2019-04-28T01:23:02.565Z,12.47
2019-04-28T01:25:32.594Z,11.87
2019-04-28T01:28:02.719Z,10.87
2019-04-28T01:30:50.385Z,15.47
2019-04-28T01:33:35.368Z,21.67
2019-04-28T01:36:05.445Z,12.30
2019-04-28T01:38:36.308Z,11.87
2019-04-28T01:41:06.448Z,15.50
2019-04-28T01:43:36.522Z,14.57
2019-04-28T01:46:06.669Z,14.20
2019-04-28T01:48:36.800Z,12.77
2019-04-28T01:51:06.858Z,13.23
2019-04-28T01:53:36.906Z,11.23
2019-04-28T01:56:07.043Z,17.17
2019-04-28T01:58:37.077Z,14.27
2019-04-28T02:01:10.609Z,17.07
2019-04-28T02:03:40.770Z,10.97
2019-04-28T02:06:10.853Z,9.60
2019-04-28T02:08:40.894Z,12.33
2019-04-28T02:11:10.962Z,11.83
2019-04-28T02:13:41.022Z,13.40
2019-04-28T02:16:11.090Z,12.63
2019-04-28T02:18:43.081Z,12.87
2019-04-28T02:21:39.545Z,13.80
2019-04-28T02:24:27.202Z,11.47
2019-04-28T02:26:57.382Z,11.73
2019-04-28T02:29:27.441Z,10.43
2019-04-28T02:31:57.685Z,12.90
2019-04-28T02:34:31.093Z,14.43
2019-04-28T02:37:02.000Z,11.53
2019-04-28T02:39:33.275Z,10.33
2019-04-28T02:42:03.496Z,13.70
2019-04-28T02:44:35.161Z,14.77
2019-04-28T02:47:06.423Z,13.00
2019-04-28T02:50:00.946Z,12.87
2019-04-28T02:52:47.799Z,7.33
2019-04-28T02:55:17.947Z,13.90
2019-04-28T02:57:48.028Z,13.50
2019-04-28T03:00:18.061Z,13.73
2019-04-28T03:02:48.114Z,11.43
2019-04-28T03:05:21.103Z,17.17
2019-04-28T03:07:51.565Z,12.23
2019-04-28T03:10:21.915Z,15.20
2019-04-28T03:12:52.201Z,13.20
2019-04-28T03:15:22.347Z,16.33
2019-04-28T03:21:27.268Z,12.93
2019-04-28T03:23:57.297Z,11.43
2019-04-28T03:26:41.357Z,16.10
2019-04-28T03:29:22.482Z,14.27
2019-04-28T03:32:29.332Z,16.93
2019-04-28T03:34:53.030Z,11.77
2019-04-28T03:37:23.472Z,11.77
2019-04-28T03:39:51.848Z,12.43
2019-04-28T03:42:22.062Z,11.80
2019-04-28T03:44:52.560Z,15.43
2019-04-28T03:47:22.604Z,15.20
2019-04-28T03:49:52.631Z,10.23
2019-04-28T03:52:22.691Z,9.97
2019-04-28T03:54:52.728Z,11.30
2019-04-28T03:57:22.788Z,11.57
2019-04-28T03:59:52.830Z,9.03
2019-04-28T04:02:23.716Z,14.33
2019-04-28T04:04:53.991Z,13.60
2019-04-28T04:07:24.059Z,11.10
2019-04-28T04:10:04.100Z,11.27
2019-04-28T04:12:50.679Z,15.10
2019-04-28T04:15:49.191Z,12.30
2019-04-28T04:18:24.448Z,15.53
2019-04-28T04:20:54.494Z,16.77
2019-04-28T04:23:24.605Z,16.23
2019-04-28T04:25:54.644Z,11.90
2019-04-28T04:28:24.714Z,16.57
2019-04-28T04:30:54.755Z,12.00
2019-04-28T04:33:24.828Z,21.00
2019-04-28T04:35:54.899Z,10.87
2019-04-28T04:38:24.968Z,17.53
2019-04-28T04:40:55.005Z,12.27
2019-04-28T04:43:25.054Z,12.87
2019-04-28T04:46:14.568Z,12.83
2019-04-28T04:48:44.896Z,12.63
2019-04-28T04:51:14.952Z,12.07
2019-04-28T04:53:44.996Z,14.57
2019-04-28T04:56:16.006Z,14.20
2019-04-28T04:58:47.130Z,16.03
2019-04-28T05:01:36.106Z,13.67
2019-04-28T05:04:29.609Z,17.10
2019-04-28T05:06:59.786Z,10.87
2019-04-28T05:09:31.189Z,14.27
2019-04-28T05:12:01.256Z,15.53
2019-04-28T05:14:31.316Z,17.10
2019-04-28T05:17:01.343Z,13.97
2019-04-28T05:19:31.402Z,14.80
2019-04-28T05:22:01.614Z,15.60
2019-04-28T05:24:40.593Z,13.47
2019-04-28T05:27:10.644Z,10.60
2019-04-28T05:29:40.678Z,13.53
2019-04-28T05:32:10.923Z,17.50
2019-04-28T05:34:46.565Z,15.77
2019-04-28T05:37:12.752Z,17.00
2019-04-28T05:39:42.789Z,20.27
2019-04-28T05:42:12.871Z,15.67
2019-04-28T05:44:42.901Z,14.53
2019-04-28T05:47:12.959Z,13.20
2019-04-28T05:50:07.125Z,16.73
2019-04-28T05:52:56.110Z,21.73
2019-04-28T05:55:32.418Z,16.37
2019-04-28T05:58:19.933Z,12.77
2019-04-28T06:01:07.929Z,17.17
2019-04-28T06:03:40.606Z,14.73
2019-04-28T06:06:10.667Z,14.23
2019-04-28T06:08:46.496Z,13.93
2019-04-28T06:11:33.188Z,9.27
2019-04-28T06:14:03.251Z,14.13
2019-04-28T06:16:33.289Z,13.37
2019-04-28T06:19:03.354Z,13.83
2019-04-28T06:21:33.384Z,9.80
2019-04-28T06:24:03.449Z,9.27
2019-04-28T06:26:33.477Z,10.93
2019-04-28T06:29:03.622Z,12.40
2019-04-28T06:31:33.641Z,14.60
2019-04-28T06:34:03.750Z,14.70
2019-04-28T06:36:33.787Z,14.60
2019-04-28T06:39:06.234Z,13.27
2019-04-28T06:41:36.389Z,10.70
2019-04-28T06:44:06.471Z,14.30
2019-04-28T06:46:36.526Z,15.73
2019-04-28T06:49:06.599Z,16.57
2019-04-28T06:51:36.634Z,17.13
2019-04-28T06:54:06.708Z,18.60
2019-04-28T06:56:36.754Z,17.13
2019-04-28T06:59:06.815Z,19.87
2019-04-28T07:01:36.865Z,23.13
2019-04-28T07:04:06.952Z,12.27
2019-04-28T07:06:36.994Z,17.93
2019-04-28T07:09:07.836Z,17.83
2019-04-28T07:11:37.913Z,14.83
2019-04-28T07:14:07.958Z,15.40
2019-04-28T07:16:39.638Z,21.27
2019-04-28T07:19:09.671Z,17.80
2019-04-28T07:22:00.577Z,18.53
2019-04-28T07:24:30.687Z,16.53
2019-04-28T07:27:00.734Z,13.50
2019-04-28T07:29:30.781Z,19.93
2019-04-28T07:32:00.986Z,10.97
2019-04-28T07:34:31.038Z,17.50
2019-04-28T07:37:01.110Z,17.00
2019-04-28T07:39:31.253Z,13.03
2019-04-28T07:42:01.297Z,17.63
2019-04-28T07:44:31.343Z,16.47
2019-04-28T07:47:01.397Z,22.83
2019-04-28T07:49:32.495Z,15.07
2019-04-28T07:52:21.502Z,15.73
2019-04-28T07:54:51.594Z,13.83
2019-04-28T07:57:24.012Z,13.93
2019-04-28T07:59:53.335Z,13.07
2019-04-28T08:02:23.466Z,14.53
2019-04-28T08:04:53.493Z,9.43
2019-04-28T08:07:23.562Z,17.30
2019-04-28T08:09:53.595Z,15.00
2019-04-28T08:12:23.660Z,10.50
2019-04-28T08:14:53.706Z,13.13
2019-04-28T08:17:23.762Z,11.37
2019-04-28T08:19:53.817Z,14.80
2019-04-28T08:22:23.867Z,14.87
2019-04-28T08:24:53.910Z,18.33
2019-04-28T08:27:23.977Z,15.00
2019-04-28T08:29:58.804Z,12.40
2019-04-28T08:32:34.660Z,13.33
2019-04-28T08:35:04.840Z,12.07
2019-04-28T08:37:34.927Z,14.40
2019-04-28T08:40:07.302Z,12.53
2019-04-28T08:42:37.355Z,16.30
2019-04-28T08:45:07.488Z,9.93
2019-04-28T08:47:37.541Z,15.33
2019-04-28T08:50:07.579Z,13.17
2019-04-28T08:52:37.648Z,18.83
2019-04-28T08:55:07.724Z,13.23
2019-04-28T08:57:38.805Z,11.40
2019-04-28T09:00:10.327Z,14.37
2019-04-28T09:02:40.453Z,17.17
2019-04-28T09:05:10.502Z,15.80
2019-04-28T09:07:40.545Z,13.03
2019-04-28T09:10:10.998Z,11.80
2019-04-28T09:12:41.074Z,19.37
2019-04-28T09:15:11.118Z,17.00
2019-04-28T09:17:41.176Z,14.30
2019-04-28T09:20:11.308Z,18.73
2019-04-28T09:22:41.343Z,18.70
2019-04-28T09:25:11.400Z,11.30
2019-04-28T09:27:41.449Z,10.97
2019-04-28T09:30:11.479Z,15.63
2019-04-28T09:32:41.543Z,15.27
2019-04-28T09:35:12.568Z,12.67
2019-04-28T09:37:42.638Z,17.27
2019-04-28T09:40:14.611Z,20.03
2019-04-28T09:43:09.394Z,13.90
2019-04-28T09:45:57.034Z,15.43
2019-04-28T09:48:27.078Z,14.13
2019-04-28T09:50:57.111Z,12.53
2019-04-28T09:53:27.143Z,8.07
2019-04-28T09:55:57.193Z,13.77
2019-04-28T09:58:27.235Z,15.67
2019-04-28T10:00:57.264Z,16.03
2019-04-28T10:03:27.318Z,13.03
2019-04-28T10:05:57.454Z,12.10
2019-04-28T10:08:27.524Z,15.63
2019-04-28T10:10:57.555Z,21.17
2019-04-28T10:13:27.579Z,13.83
2019-04-28T10:15:57.640Z,11.80
2019-04-28T10:18:27.694Z,13.33
2019-04-28T10:20:57.751Z,17.33
2019-04-28T10:23:27.804Z,11.43
2019-04-28T10:25:57.828Z,14.07
2019-04-28T10:28:27.877Z,7.73
2019-04-28T10:30:57.889Z,5.00
2019-04-28T10:33:27.973Z,12.97
2019-04-28T10:35:58.072Z,11.50
2019-04-28T10:38:28.213Z,13.33
2019-04-28T10:41:08.875Z,13.20
2019-04-28T10:43:39.473Z,8.93
2019-04-28T10:46:10.565Z,14.73
2019-04-28T10:48:40.607Z,14.30
2019-04-28T10:51:10.641Z,13.13
2019-04-28T10:53:40.703Z,10.03
2019-04-28T10:56:11.628Z,13.73
2019-04-28T10:58:44.362Z,10.23
2019-04-28T11:01:14.449Z,14.93
2019-04-28T11:03:46.150Z,13.80
2019-04-28T11:06:16.332Z,11.17
2019-04-28T11:08:56.462Z,14.43
2019-04-28T11:11:27.993Z,15.13
2019-04-28T11:13:58.149Z,21.43
2019-04-28T11:16:31.897Z,17.63
2019-04-28T11:19:01.933Z,13.43
2019-04-28T11:21:32.020Z,11.37
2019-04-28T11:24:02.077Z,12.93
2019-04-28T11:26:32.937Z,15.77
2019-04-28T11:29:03.045Z,10.60
2019-04-28T11:31:33.101Z,9.03
2019-04-28T11:34:22.075Z,9.30
2019-04-28T11:36:52.132Z,18.40
2019-04-28T11:39:29.162Z,11.50
2019-04-28T11:41:59.286Z,14.83
2019-04-28T11:44:29.319Z,14.77
2019-04-28T11:47:00.329Z,8.30
2019-04-28T11:49:30.357Z,12.07
2019-04-28T11:52:00.409Z,11.70
2019-04-28T11:54:30.453Z,13.00
2019-04-28T11:57:00.492Z,10.07
2019-04-28T11:59:30.516Z,10.70
2019-04-28T12:02:00.557Z,15.90
2019-04-28T12:04:30.566Z,9.93
2019-04-28T12:07:00.638Z,13.00
2019-04-28T12:09:38.302Z,12.73
2019-04-28T12:12:14.299Z,12.23
2019-04-28T12:14:49.625Z,9.23
2019-04-28T12:17:31.710Z,9.87
2019-04-28T12:20:09.216Z,11.13
2019-04-28T12:22:39.273Z,13.87
2019-04-28T12:25:09.366Z,15.90
2019-04-28T12:27:39.402Z,11.57
2019-04-28T12:30:09.429Z,7.27
2019-04-28T12:32:39.473Z,13.63
2019-04-28T12:35:09.501Z,12.80
2019-04-28T12:37:39.632Z,13.23
2019-04-28T12:40:09.668Z,10.10
2019-04-28T12:42:39.782Z,14.20
2019-04-28T12:45:09.847Z,12.67
2019-04-28T12:47:39.873Z,11.53
2019-04-28T12:50:19.054Z,9.90
2019-04-28T12:52:49.075Z,14.00
2019-04-28T12:55:19.127Z,11.27
2019-04-28T12:57:49.157Z,13.40
2019-04-28T13:00:32.961Z,12.03
2019-04-28T13:03:15.484Z,13.13
2019-04-28T13:05:46.101Z,11.30
2019-04-28T13:08:16.118Z,12.30
2019-04-28T13:10:46.169Z,12.27
2019-04-28T13:13:16.219Z,12.37
2019-04-28T13:15:46.261Z,12.53
2019-04-28T13:18:16.314Z,15.83
2019-04-28T13:20:46.354Z,12.80
2019-04-28T13:23:16.397Z,13.13
2019-04-28T13:25:46.429Z,19.93
2019-04-28T13:28:16.478Z,19.57
2019-04-28T13:30:46.506Z,18.93
2019-04-28T13:33:16.538Z,14.97
2019-04-28T13:35:46.569Z,12.70
2019-04-28T13:38:16.585Z,10.30
2019-04-28T13:40:46.661Z,9.57
2019-04-28T13:43:16.678Z,6.50
2019-04-28T13:45:46.741Z,8.03
2019-04-28T13:48:16.767Z,8.20
2019-04-28T13:50:48.964Z,10.63
2019-04-28T13:53:18.520Z,5.40
2019-04-28T13:56:07.551Z,8.60
2019-04-28T13:58:42.470Z,7.37
2019-04-28T14:01:30.023Z,7.13
2019-04-28T14:04:18.993Z,3.90
2019-04-28T14:06:51.670Z,8.67
2019-04-28T14:09:21.703Z,8.17
2019-04-28T14:11:51.736Z,6.17
2019-04-28T14:14:21.768Z,7.90
2019-04-28T14:16:52.780Z,5.17
2019-04-28T14:19:22.919Z,7.27
2019-04-28T14:21:52.955Z,9.50
2019-04-28T14:24:23.053Z,8.13
2019-04-28T14:26:53.046Z,9.03
2019-04-28T14:29:23.135Z,10.43
2019-04-28T14:31:54.074Z,10.97
2019-04-28T14:34:24.136Z,11.10
2019-04-28T14:36:54.229Z,6.43
2019-04-28T14:39:24.281Z,8.23
2019-04-28T14:41:54.498Z,10.30
2019-04-28T14:44:24.714Z,8.63
2019-04-28T14:46:54.782Z,11.00
2019-04-28T14:49:24.829Z,9.97
2019-04-28T14:51:54.846Z,11.37
2019-04-28T14:54:24.926Z,11.80
2019-04-28T14:56:54.981Z,9.87
2019-04-28T14:59:25.097Z,8.60
2019-04-28T15:02:20.113Z,7.73
2019-04-28T15:05:11.916Z,11.97
2019-04-28T15:07:57.936Z,9.07
2019-04-28T15:10:46.772Z,11.50
2019-04-28T15:13:17.672Z,8.67
2019-04-28T15:15:47.735Z,8.37
2019-04-28T15:18:17.740Z,7.57
2019-04-28T15:20:47.791Z,7.90
2019-04-28T15:23:17.838Z,8.53
2019-04-28T15:25:47.879Z,12.00
2019-04-28T15:28:17.899Z,14.13
2019-04-28T15:30:47.945Z,8.90
2019-04-28T15:33:17.960Z,7.67
2019-04-28T15:35:48.010Z,13.47
2019-04-28T15:38:18.066Z,7.83
2019-04-28T15:40:48.125Z,10.73
2019-04-28T15:43:18.257Z,7.87
2019-04-28T15:45:48.293Z,7.80
2019-04-28T15:48:18.342Z,8.23
2019-04-28T15:50:48.370Z,8.57
2019-04-28T15:53:18.490Z,14.23
2019-04-28T15:55:55.498Z,10.30
2019-04-28T15:58:50.498Z,8.00
2019-04-28T16:01:20.541Z,8.23
2019-04-28T16:03:50.561Z,7.73
2019-04-28T16:06:20.602Z,9.17
2019-04-28T16:08:50.645Z,11.83
2019-04-28T16:11:20.681Z,9.10
2019-04-28T16:13:50.734Z,9.57
2019-04-28T16:16:20.907Z,12.17
2019-04-28T16:18:50.902Z,10.63
2019-04-28T16:21:21.009Z,11.10
2019-04-28T16:23:51.054Z,10.80
2019-04-28T16:26:22.934Z,11.33
2019-04-28T16:28:52.820Z,12.03
2019-04-28T16:31:22.862Z,12.63
2019-04-28T16:33:52.898Z,15.10
2019-04-28T16:36:22.935Z,16.33
2019-04-28T16:38:52.993Z,11.03
2019-04-28T16:41:29.122Z,9.70
2019-04-28T16:44:04.343Z,10.77
2019-04-28T16:46:34.356Z,7.03
2019-04-28T16:49:04.401Z,8.90
2019-04-28T16:51:34.465Z,6.00
2019-04-28T16:54:04.480Z,7.43
2019-04-28T16:56:46.679Z,6.37
2019-04-28T16:59:41.529Z,9.77
2019-04-28T17:02:20.511Z,8.90
2019-04-28T17:04:50.610Z,10.87
2019-04-28T17:07:20.640Z,7.90
2019-04-28T17:09:50.771Z,7.37
2019-04-28T17:12:20.775Z,7.80
2019-04-28T17:14:50.804Z,5.77
2019-04-28T17:17:20.872Z,10.37
2019-04-28T17:19:51.818Z,10.50
2019-04-28T17:22:21.875Z,6.43
2019-04-28T17:24:52.224Z,4.73
2019-04-28T17:27:22.270Z,9.87
2019-04-28T17:29:52.474Z,8.97
2019-04-28T17:32:22.584Z,4.40
2019-04-28T17:34:53.595Z,8.73
2019-04-28T17:37:23.707Z,11.20
2019-04-28T17:39:53.719Z,9.40
2019-04-28T17:42:23.778Z,6.70
2019-04-28T17:44:54.921Z,7.53
2019-04-28T17:47:25.167Z,8.77
2019-04-28T17:49:55.208Z,13.77
2019-04-28T17:52:25.426Z,5.30
2019-04-28T17:54:55.520Z,7.17
2019-04-28T17:57:25.542Z,9.63
2019-04-28T17:59:57.427Z,5.83
2019-04-28T18:02:55.453Z,3.47
2019-04-28T18:05:33.292Z,3.57
2019-04-28T18:08:04.384Z,4.33
2019-04-28T18:10:34.433Z,5.60
2019-04-28T18:13:05.421Z,7.07
2019-04-28T18:15:51.017Z,4.73
2019-04-28T18:18:42.199Z,3.53
2019-04-28T18:21:12.253Z,1.73
2019-04-28T18:23:42.355Z,2.60
2019-04-28T18:26:13.473Z,4.70
2019-04-28T18:28:43.501Z,3.13
2019-04-28T18:31:41.680Z,5.03
2019-04-28T18:34:31.482Z,3.70
2019-04-28T18:37:20.542Z,3.20
2019-04-28T18:40:21.532Z,2.57
2019-04-28T18:43:00.338Z,2.60
2019-04-28T18:45:30.564Z,5.47
2019-04-28T18:48:00.664Z,3.83
2019-04-28T18:50:30.794Z,5.87
2019-04-28T18:53:00.828Z,4.53
2019-04-28T18:55:30.935Z,4.83
2019-04-28T18:58:01.054Z,3.93
2019-04-28T19:00:32.742Z,6.60
2019-04-28T19:03:02.776Z,4.10
2019-04-28T19:05:35.429Z,5.17
2019-04-28T19:08:17.337Z,4.33
2019-04-28T19:11:18.213Z,5.87
2019-04-28T19:13:52.286Z,6.60
2019-04-28T19:16:41.242Z,6.27
2019-04-28T19:19:11.901Z,4.63
2019-04-28T19:21:44.416Z,4.10
2019-04-28T19:24:14.531Z,7.00
2019-04-28T19:26:44.564Z,5.83
2019-04-28T19:29:14.619Z,6.27
2019-04-28T19:31:44.746Z,4.53
2019-04-28T19:34:15.745Z,5.00
2019-04-28T19:36:45.816Z,4.13
2019-04-28T19:39:15.854Z,3.90
2019-04-28T19:41:47.496Z,4.70
2019-04-28T19:44:17.610Z,6.20
2019-04-28T19:46:47.722Z,4.77
2019-04-28T19:49:17.882Z,5.17
2019-04-28T19:51:47.877Z,4.77
2019-04-28T19:54:20.310Z,7.10
2019-04-28T19:57:04.081Z,6.20
2019-04-28T19:59:53.148Z,5.27
2019-04-28T20:02:23.869Z,10.17
2019-04-28T20:04:53.916Z,6.50
2019-04-28T20:07:23.948Z,8.17
2019-04-28T20:09:55.065Z,5.67
2019-04-28T20:12:25.102Z,11.03
2019-04-28T20:14:55.159Z,7.63
2019-04-28T20:17:26.187Z,7.73
2019-04-28T20:19:56.254Z,6.23
2019-04-28T20:22:26.302Z,6.57
2019-04-28T20:24:56.400Z,5.30
2019-04-28T20:27:26.529Z,5.67
2019-04-28T20:29:56.582Z,7.20
2019-04-28T20:32:26.625Z,5.23
2019-04-28T20:34:56.674Z,5.83
2019-04-28T20:37:34.402Z,7.93
2019-04-28T20:40:09.315Z,7.40
2019-04-28T20:42:46.181Z,5.07
2019-04-28T20:45:16.927Z,5.67
2019-04-28T20:47:46.989Z,7.00
2019-04-28T20:50:17.030Z,8.53
2019-04-28T20:52:47.103Z,7.17
2019-04-28T20:55:17.139Z,9.67
2019-04-28T20:57:47.187Z,4.77
2019-04-28T21:00:17.219Z,5.40
2019-04-28T21:02:48.926Z,6.27
2019-04-28T21:05:18.959Z,7.83
2019-04-28T21:07:48.980Z,4.30
2019-04-28T21:10:19.030Z,6.73
2019-04-28T21:12:49.065Z,6.63
2019-04-28T21:15:19.139Z,4.93
2019-04-28T21:17:49.183Z,7.20
2019-04-28T21:20:19.238Z,8.73
2019-04-28T21:22:49.300Z,4.23
2019-04-28T21:25:19.333Z,8.87
2019-04-28T21:27:49.381Z,7.40
2019-04-28T21:30:19.421Z,5.10
2019-04-28T21:32:49.464Z,6.43
2019-04-28T21:35:19.512Z,6.00
2019-04-28T21:37:49.582Z,6.80
2019-04-28T21:40:19.910Z,6.23
2019-04-28T21:43:18.007Z,4.60
2019-04-28T21:46:09.810Z,4.67
2019-04-28T21:48:44.843Z,4.73
2019-04-28T21:51:14.927Z,4.80
2019-04-28T21:53:44.979Z,8.50
2019-04-28T21:56:15.141Z,6.43
2019-04-28T21:58:45.201Z,5.53
2019-04-28T22:01:17.173Z,4.07
2019-04-28T22:03:48.054Z,7.60
2019-04-28T22:06:18.180Z,6.07
2019-04-28T22:08:48.220Z,7.10
2019-04-28T22:11:18.384Z,6.17
2019-04-28T22:13:48.400Z,6.67
2019-04-28T22:16:18.463Z,6.40
2019-04-28T22:18:48.562Z,6.03
2019-04-28T22:21:18.639Z,7.97
2019-04-28T22:24:13.415Z,7.47
2019-04-28T22:26:44.704Z,11.03
2019-04-28T22:29:14.746Z,9.87
2019-04-28T22:31:45.292Z,10.97
2019-04-28T22:34:15.343Z,10.57
2019-04-28T22:36:45.877Z,13.60
2019-04-28T22:39:16.897Z,14.27
2019-04-28T22:41:46.966Z,9.13
2019-04-28T22:44:16.997Z,6.93
2019-04-28T22:46:47.153Z,9.73
2019-04-28T22:49:17.177Z,8.03
2019-04-28T22:51:47.225Z,4.77
2019-04-28T22:54:30.569Z,5.17
2019-04-28T22:57:10.548Z,8.77
2019-04-28T22:59:42.609Z,7.30
2019-04-28T23:02:14.964Z,10.20
2019-04-28T23:04:51.231Z,9.20
2019-04-28T23:07:21.361Z,10.83
2019-04-28T23:09:51.397Z,9.10
2019-04-28T23:12:21.545Z,7.03
2019-04-28T23:14:51.605Z,8.40
2019-04-28T23:17:22.005Z,9.53
2019-04-28T23:19:52.044Z,7.07
2019-04-28T23:22:46.689Z,6.47
2019-04-28T23:25:08.934Z,10.07
2019-04-28T23:27:38.969Z,7.47
2019-04-28T23:30:09.185Z,11.37
2019-04-28T23:32:39.219Z,9.27
2019-04-28T23:35:09.287Z,9.53
2019-04-28T23:37:39.375Z,9.80
2019-04-28T23:40:09.447Z,8.17
2019-04-28T23:42:44.422Z,11.87
2019-04-28T23:45:14.503Z,7.27
2019-04-28T23:47:44.505Z,9.13
2019-04-28T23:50:16.190Z,12.07
2019-04-28T23:53:00.338Z,6.00
2019-04-28T23:55:30.431Z,11.03
2019-04-28T23:58:00.463Z,15.20
